createdAt,value
2019-06-07T00:01:39.943Z,12.55
2019-06-07T00:04:11.544Z,16.67
2019-06-07T00:06:42.331Z,14.03
2019-06-07T00:09:14.683Z,14.65
2019-06-07T00:11:46.326Z,13.83
2019-06-07T00:14:18.281Z,12.60
2019-06-07T00:16:48.668Z,12.00
2019-06-07T00:19:19.147Z,17.60
2019-06-07T00:24:22.081Z,15.63
2019-06-07T00:26:58.744Z,14.83
2019-06-07T00:29:27.578Z,14.95
2019-06-07T00:31:57.957Z,12.18
2019-06-07T00:34:28.304Z,16.17
2019-06-07T00:36:58.676Z,16.42
2019-06-07T00:39:29.032Z,15.80
2019-06-07T00:41:59.336Z,15.48
2019-06-07T00:44:29.661Z,13.70
2019-06-07T00:47:00.107Z,15.78
2019-06-07T00:49:40.725Z,15.28
2019-06-07T00:52:02.463Z,15.90
2019-06-07T00:54:33.101Z,15.63
2019-06-07T00:57:03.465Z,18.05
2019-06-07T00:59:33.880Z,14.90
2019-06-07T01:02:05.485Z,14.98
2019-06-07T01:04:35.955Z,16.30
2019-06-07T01:07:06.462Z,18.62
2019-06-07T01:09:36.747Z,16.95
2019-06-07T01:12:07.118Z,15.28
2019-06-07T01:14:37.679Z,16.12
2019-06-07T01:17:39.844Z,15.75
2019-06-07T01:19:58.472Z,15.32
2019-06-07T01:22:29.966Z,17.77
2019-06-07T01:25:00.239Z,15.30
2019-06-07T01:27:30.553Z,17.50
2019-06-07T01:30:00.842Z,17.00
2019-06-07T01:32:31.972Z,15.90
2019-06-07T01:35:05.899Z,17.23
2019-06-07T01:37:36.273Z,16.82
2019-06-07T01:40:07.827Z,15.72
2019-06-07T01:42:38.351Z,16.20
2019-06-07T01:45:11.239Z,15.95
2019-06-07T01:47:41.540Z,15.98
2019-06-07T01:50:12.236Z,16.62
2019-06-07T01:52:42.626Z,16.00
2019-06-07T01:55:13.714Z,13.95
2019-06-07T01:57:48.307Z,14.30
2019-06-07T02:00:21.418Z,16.32
2019-06-07T02:02:50.875Z,14.45
2019-06-07T02:05:23.321Z,17.55
2019-06-07T02:07:53.675Z,13.60
2019-06-07T02:10:27.493Z,16.23
2019-06-07T02:12:56.079Z,13.53
2019-06-07T02:15:30.716Z,15.63
2019-06-07T02:17:58.496Z,13.68
2019-06-07T02:20:33.499Z,13.83
2019-06-07T02:23:00.830Z,11.28
2019-06-07T02:25:48.471Z,14.45
2019-06-07T02:28:26.669Z,12.35
2019-06-07T02:30:44.017Z,13.53
2019-06-07T02:33:07.313Z,15.08
2019-06-07T02:35:40.656Z,15.40
2019-06-07T02:38:10.603Z,15.48
2019-06-07T02:40:40.968Z,14.53
2019-06-07T02:43:11.252Z,14.05
2019-06-07T02:45:43.588Z,13.15
2019-06-07T02:48:13.534Z,14.30
2019-06-07T02:50:45.454Z,13.65
2019-06-07T02:53:15.793Z,15.25
2019-06-07T02:56:34.253Z,15.58
2019-06-07T02:58:18.313Z,14.70
2019-06-07T03:01:09.168Z,13.10
2019-06-07T03:03:24.591Z,16.73
2019-06-07T03:05:55.628Z,14.20
2019-06-07T03:08:28.393Z,12.65
2019-06-07T03:10:59.436Z,17.98
2019-06-07T03:13:37.420Z,12.93
2019-06-07T03:16:09.671Z,14.20
2019-06-07T03:19:01.525Z,12.55
2019-06-07T03:21:36.501Z,13.40
2019-06-07T03:24:06.924Z,14.58
2019-06-07T03:27:31.432Z,12.20
2019-06-07T03:29:10.387Z,12.20
2019-06-07T03:31:47.128Z,14.90
2019-06-07T03:34:12.741Z,14.70
2019-06-07T03:36:43.035Z,12.85
2019-06-07T03:39:13.421Z,12.88
2019-06-07T03:42:04.533Z,12.20
2019-06-07T03:44:15.930Z,15.18
2019-06-07T03:46:46.225Z,13.75
2019-06-07T03:49:16.509Z,14.70
2019-06-07T03:51:46.816Z,14.87
2019-06-07T03:54:17.096Z,13.28
2019-06-07T03:56:47.400Z,16.55
2019-06-07T03:59:17.680Z,14.43
2019-06-07T04:01:48.003Z,12.73
2019-06-07T04:04:18.279Z,12.30
2019-06-07T04:06:48.579Z,12.80
2019-06-07T04:09:18.977Z,13.05
2019-06-07T04:11:49.353Z,17.10
2019-06-07T04:14:19.816Z,15.98
2019-06-07T04:16:50.120Z,16.48
2019-06-07T04:19:20.478Z,16.70
2019-06-07T04:21:50.829Z,16.12
2019-06-07T04:24:21.205Z,18.62
2019-06-07T04:26:51.572Z,16.55
2019-06-07T04:29:33.230Z,16.67
2019-06-07T04:31:53.978Z,17.60
2019-06-07T04:34:24.473Z,12.90
2019-06-07T04:36:59.292Z,15.10
2019-06-07T04:39:33.494Z,15.25
2019-06-07T04:42:02.815Z,17.77
2019-06-07T04:44:37.194Z,12.45
2019-06-07T04:47:09.464Z,11.63
2019-06-07T04:49:43.880Z,9.55
2019-06-07T04:52:14.872Z,8.65
2019-06-07T04:54:45.882Z,11.33
2019-06-07T04:57:16.454Z,9.05
2019-06-07T05:00:11.729Z,9.38
2019-06-07T05:02:20.162Z,10.95
2019-06-07T05:04:50.492Z,8.73
2019-06-07T05:07:20.855Z,9.13
2019-06-07T05:09:51.087Z,11.18
2019-06-07T05:12:21.379Z,9.60
2019-06-07T05:14:51.739Z,8.10
2019-06-07T05:17:22.041Z,11.48
2019-06-07T05:19:52.479Z,9.48
2019-06-07T05:22:23.841Z,8.28
2019-06-07T05:24:54.232Z,10.78
2019-06-07T05:27:24.521Z,13.30
2019-06-07T05:30:09.653Z,11.63
2019-06-07T05:32:26.928Z,10.82
2019-06-07T05:34:57.310Z,14.30
2019-06-07T05:37:27.657Z,12.35
2019-06-07T05:39:58.140Z,14.87
2019-06-07T05:42:28.407Z,12.65
2019-06-07T05:44:58.791Z,11.70
2019-06-07T05:47:29.103Z,13.78
2019-06-07T05:49:59.383Z,12.82
2019-06-07T05:52:29.729Z,13.08
2019-06-07T05:55:00.028Z,11.15
2019-06-07T05:57:30.317Z,11.00
2019-06-07T06:00:00.676Z,12.00
2019-06-07T06:02:30.975Z,13.10
2019-06-07T06:05:01.340Z,11.97
2019-06-07T06:07:31.710Z,12.13
2019-06-07T06:10:02.030Z,13.83
2019-06-07T06:12:37.308Z,11.80
2019-06-07T06:15:06.194Z,13.35
2019-06-07T06:17:40.555Z,13.58
2019-06-07T06:20:09.710Z,12.80
2019-06-07T06:22:44.056Z,13.40
2019-06-07T06:30:18.822Z,11.15
2019-06-07T06:32:56.868Z,14.90
2019-06-07T06:35:21.362Z,12.93
2019-06-07T06:37:53.471Z,13.13
2019-06-07T06:40:24.490Z,12.95
2019-06-07T06:42:55.115Z,14.47
2019-06-07T06:45:25.574Z,13.45
2019-06-07T06:47:55.926Z,12.23
2019-06-07T06:50:26.303Z,14.53
2019-06-07T06:52:56.716Z,14.53
2019-06-07T06:55:27.345Z,14.15
2019-06-07T06:57:57.698Z,13.55
2019-06-07T07:01:05.977Z,14.45
2019-06-07T07:06:24.050Z,15.38
2019-06-07T07:08:31.081Z,15.78
2019-06-07T07:11:01.387Z,13.38
2019-06-07T07:13:31.712Z,14.10
2019-06-07T07:16:02.043Z,14.58
2019-06-07T07:18:32.357Z,15.38
2019-06-07T07:21:02.742Z,14.25
2019-06-07T07:23:33.017Z,14.20
2019-06-07T07:26:03.322Z,15.38
2019-06-07T07:28:33.735Z,15.85
2019-06-07T07:31:04.135Z,14.85
2019-06-07T07:34:20.798Z,15.10
2019-06-07T07:36:28.141Z,15.35
2019-06-07T07:38:38.538Z,14.38
2019-06-07T07:41:15.181Z,17.15
2019-06-07T07:43:41.048Z,15.88
2019-06-07T07:46:28.619Z,15.60
2019-06-07T07:48:43.817Z,15.10
2019-06-07T07:51:14.165Z,13.88
2019-06-07T07:53:56.018Z,14.43
2019-06-07T07:56:16.527Z,13.43
2019-06-07T07:58:50.398Z,13.65
2019-06-07T08:01:18.826Z,13.48
2019-06-07T08:03:50.699Z,13.65
2019-06-07T08:06:21.302Z,14.80
2019-06-07T08:08:55.804Z,12.98
2019-06-07T08:11:24.020Z,12.45
2019-06-07T08:13:57.322Z,12.33
2019-06-07T08:16:26.449Z,13.10
2019-06-07T08:19:03.501Z,12.53
2019-06-07T08:21:30.348Z,11.60
2019-06-07T08:24:04.669Z,13.60
2019-06-07T08:26:32.704Z,12.05
2019-06-07T08:29:03.390Z,13.23
2019-06-07T08:31:34.719Z,13.35
2019-06-07T08:34:05.698Z,12.07
2019-06-07T08:36:42.426Z,10.78
2019-06-07T08:39:09.049Z,14.43
2019-06-07T08:41:53.442Z,11.45
2019-06-07T08:44:23.392Z,14.25
2019-06-07T08:46:43.317Z,11.20
2019-06-07T08:49:14.593Z,13.32
2019-06-07T08:51:45.081Z,11.70
2019-06-07T08:54:22.707Z,13.10
2019-06-07T08:56:47.357Z,12.37
2019-06-07T08:59:17.660Z,12.93
2019-06-07T09:01:48.120Z,12.63
2019-06-07T09:04:18.646Z,9.60
2019-06-07T09:09:22.209Z,11.68
2019-06-07T09:11:57.155Z,11.78
2019-06-07T09:14:27.240Z,8.75
2019-06-07T09:17:01.266Z,10.30
2019-06-07T09:19:29.767Z,11.60
2019-06-07T09:22:04.684Z,10.32
2019-06-07T09:24:32.131Z,9.45
2019-06-07T09:27:07.175Z,11.78
2019-06-07T09:29:35.493Z,10.93
2019-06-07T09:32:11.978Z,10.75
2019-06-07T09:34:38.045Z,10.95
2019-06-07T09:37:54.231Z,10.88
2019-06-07T09:39:40.258Z,12.00
2019-06-07T09:42:12.658Z,13.28
2019-06-07T09:44:42.605Z,10.70
2019-06-07T09:47:30.988Z,7.53
2019-06-07T09:49:44.958Z,9.98
2019-06-07T09:52:15.269Z,10.98
2019-06-07T09:57:18.197Z,9.83
2019-06-07T09:59:48.506Z,11.30
2019-06-07T10:02:18.815Z,10.35
2019-06-07T10:04:49.079Z,9.45
2019-06-07T10:07:31.184Z,9.73
2019-06-07T10:12:24.245Z,9.93
2019-06-07T10:14:54.672Z,9.35
2019-06-07T10:17:24.994Z,9.95
2019-06-07T10:19:55.411Z,11.78
2019-06-07T10:22:25.719Z,9.10
2019-06-07T10:24:55.992Z,10.20
2019-06-07T10:27:26.376Z,9.20
2019-06-07T10:29:56.751Z,15.38
2019-06-07T10:32:27.122Z,11.75
2019-06-07T10:34:57.482Z,12.05
2019-06-07T10:37:27.936Z,7.85
2019-06-07T10:39:58.342Z,8.43
2019-06-07T10:42:28.703Z,6.80
2019-06-07T10:44:59.124Z,7.97
2019-06-07T10:47:29.698Z,9.40
2019-06-07T10:50:00.248Z,9.65
2019-06-07T10:52:30.626Z,10.28
2019-06-07T10:55:00.897Z,7.67
2019-06-07T10:57:31.402Z,7.03
2019-06-07T11:00:03.361Z,9.63
2019-06-07T11:02:35.129Z,8.33
2019-06-07T11:05:08.177Z,6.85
2019-06-07T11:07:38.923Z,8.55
2019-06-07T11:10:15.627Z,8.48
2019-06-07T11:12:41.439Z,7.00
2019-06-07T11:15:13.153Z,8.55
2019-06-07T11:17:43.585Z,8.50
2019-06-07T11:20:14.470Z,7.22
2019-06-07T11:22:44.907Z,5.25
2019-06-07T11:25:16.952Z,7.33
2019-06-07T11:27:48.387Z,6.83
2019-06-07T11:30:19.011Z,6.83
2019-06-07T11:32:49.368Z,8.85
2019-06-07T11:35:19.946Z,7.33
2019-06-07T11:37:50.252Z,6.97
2019-06-07T11:40:35.691Z,6.65
2019-06-07T11:42:52.978Z,6.47
2019-06-07T11:45:23.311Z,7.08
2019-06-07T11:47:53.883Z,6.80
2019-06-07T11:50:24.315Z,8.25
2019-06-07T11:52:54.595Z,6.08
2019-06-07T11:55:24.886Z,7.08
2019-06-07T11:57:55.244Z,6.90
2019-06-07T12:00:26.481Z,6.28
2019-06-07T12:02:56.842Z,7.45
2019-06-07T12:05:27.272Z,8.50
2019-06-07T12:07:57.628Z,6.92
2019-06-07T12:10:41.828Z,5.33
2019-06-07T12:12:59.957Z,8.35
2019-06-07T12:15:30.255Z,6.80
2019-06-07T12:18:00.589Z,5.40
2019-06-07T12:20:30.971Z,4.30
2019-06-07T12:23:01.425Z,7.08
2019-06-07T12:25:31.729Z,4.53
2019-06-07T12:28:02.021Z,6.97
2019-06-07T12:30:32.447Z,4.78
2019-06-07T12:33:02.734Z,7.95
2019-06-07T12:35:33.046Z,5.30
2019-06-07T12:38:03.447Z,5.00
2019-06-07T12:40:33.863Z,7.45
2019-06-07T12:43:04.304Z,5.83
2019-06-07T12:45:44.421Z,7.17
2019-06-07T12:48:06.697Z,6.35
2019-06-07T12:50:43.002Z,5.78
2019-06-07T12:53:09.099Z,4.22
2019-06-07T12:55:39.423Z,4.87
2019-06-07T12:58:09.749Z,5.62
2019-06-07T13:00:41.039Z,6.28
2019-06-07T13:03:11.320Z,7.25
2019-06-07T13:05:41.626Z,8.08
2019-06-07T13:08:12.253Z,9.70
2019-06-07T13:10:42.792Z,5.20
2019-06-07T13:13:13.203Z,6.55
2019-06-07T13:15:43.593Z,7.35
2019-06-07T13:18:15.176Z,5.03
2019-06-07T13:20:46.025Z,5.03
2019-06-07T13:23:16.464Z,6.12
2019-06-07T13:25:46.861Z,5.87
2019-06-07T13:28:18.614Z,3.72
2019-06-07T13:30:49.192Z,6.17
2019-06-07T13:33:21.490Z,10.38
2019-06-07T13:35:51.459Z,6.53
2019-06-07T13:38:25.817Z,4.17
2019-06-07T13:40:57.063Z,4.10
2019-06-07T13:43:28.172Z,5.35
2019-06-07T13:45:58.657Z,5.33
2019-06-07T13:48:29.928Z,4.30
2019-06-07T13:51:00.362Z,4.78
2019-06-07T13:53:30.679Z,6.35
2019-06-07T13:56:00.941Z,4.33
2019-06-07T13:58:31.258Z,19.02
2019-06-07T14:01:01.523Z,4.47
2019-06-07T14:03:34.018Z,6.05
2019-06-07T14:06:04.325Z,4.10
2019-06-07T14:08:34.703Z,4.75
2019-06-07T14:11:05.058Z,5.10
2019-06-07T14:13:35.371Z,6.08
2019-06-07T14:16:05.729Z,9.38
2019-06-07T14:18:36.174Z,4.22
2019-06-07T14:21:06.538Z,2.83
2019-06-07T14:23:48.324Z,4.53
2019-06-07T14:26:08.815Z,8.60
2019-06-07T14:28:39.097Z,5.30
2019-06-07T14:31:09.375Z,4.62
2019-06-07T14:33:39.724Z,6.28
2019-06-07T14:36:10.197Z,3.00
2019-06-07T14:38:40.564Z,4.15
2019-06-07T14:41:10.941Z,3.05
2019-06-07T14:43:41.409Z,6.10
2019-06-07T14:46:11.925Z,6.12
2019-06-07T14:48:42.346Z,6.58
2019-06-07T14:51:12.612Z,4.17
2019-06-07T14:53:42.892Z,3.47
2019-06-07T14:56:13.184Z,4.72
2019-06-07T14:58:43.717Z,4.30
2019-06-07T15:01:14.012Z,4.80
2019-06-07T15:03:44.490Z,6.37
2019-06-07T15:06:14.812Z,3.60
2019-06-07T15:08:45.149Z,5.97
2019-06-07T15:11:15.562Z,5.08
2019-06-07T15:13:45.889Z,6.97
2019-06-07T15:16:17.431Z,7.17
2019-06-07T15:18:47.766Z,6.45
2019-06-07T15:21:18.083Z,6.50
2019-06-07T15:23:49.416Z,6.85
2019-06-07T15:26:19.849Z,3.77
2019-06-07T15:28:50.201Z,4.80
2019-06-07T15:31:20.640Z,3.40
2019-06-07T15:33:50.975Z,7.80
2019-06-07T15:36:21.297Z,5.95
2019-06-07T15:38:51.720Z,5.05
2019-06-07T15:41:22.214Z,7.05
2019-06-07T15:43:52.513Z,3.92
2019-06-07T15:46:22.866Z,4.05
2019-06-07T15:48:53.220Z,4.28
2019-06-07T15:51:23.690Z,4.28
2019-06-07T15:53:53.975Z,4.25
2019-06-07T15:56:24.278Z,6.08
2019-06-07T15:58:54.672Z,3.77
2019-06-07T16:01:25.058Z,3.83
2019-06-07T16:03:55.365Z,5.05
2019-06-07T16:06:25.828Z,4.67
2019-06-07T16:08:57.261Z,6.67
2019-06-07T16:11:27.636Z,5.87
2019-06-07T16:13:57.986Z,3.87
2019-06-07T16:16:28.333Z,6.75
2019-06-07T16:18:58.871Z,7.85
2019-06-07T16:21:29.250Z,4.90
2019-06-07T16:23:59.598Z,5.08
2019-06-07T16:26:29.977Z,5.42
2019-06-07T16:29:01.950Z,5.65
2019-06-07T16:31:32.256Z,4.35
2019-06-07T16:34:02.759Z,5.15
2019-06-07T16:36:33.427Z,6.40
2019-06-07T16:39:05.648Z,4.08
2019-06-07T16:41:36.506Z,7.12
2019-06-07T16:44:07.105Z,4.62
2019-06-07T16:46:38.658Z,3.77
2019-06-07T16:49:09.950Z,4.72
2019-06-07T16:51:41.296Z,4.35
2019-06-07T16:54:11.683Z,6.10
2019-06-07T16:56:45.659Z,5.70
2019-06-07T16:59:14.021Z,3.98
2019-06-07T17:01:45.301Z,5.17
2019-06-07T17:04:16.164Z,5.10
2019-06-07T17:06:48.183Z,6.47
2019-06-07T17:09:18.715Z,4.22
2019-06-07T17:11:48.981Z,6.92
2019-06-07T17:14:19.284Z,4.08
2019-06-07T17:16:50.282Z,4.35
2019-06-07T17:19:20.916Z,7.20
2019-06-07T17:21:51.188Z,5.58
2019-06-07T17:24:21.645Z,4.03
2019-06-07T17:26:52.009Z,5.67
2019-06-07T17:29:23.371Z,6.12
2019-06-07T17:31:56.697Z,4.62
2019-06-07T17:34:25.660Z,6.03
2019-06-07T17:36:56.121Z,7.22
2019-06-07T17:39:26.453Z,9.10
2019-06-07T17:42:02.090Z,3.30
2019-06-07T17:44:28.998Z,4.17
2019-06-07T17:46:59.274Z,8.95
2019-06-07T17:49:41.751Z,3.08
2019-06-07T17:52:12.027Z,6.53
2019-06-07T17:54:43.789Z,6.95
2019-06-07T17:57:14.287Z,6.05
2019-06-07T17:59:44.799Z,4.78
2019-06-07T18:02:15.795Z,5.22
2019-06-07T18:04:47.278Z,6.28
2019-06-07T18:07:18.978Z,3.37
2019-06-07T18:09:51.581Z,6.70
2019-06-07T18:12:21.898Z,3.80
2019-06-07T18:14:52.449Z,4.80
2019-06-07T18:17:34.135Z,5.42
2019-06-07T18:19:55.287Z,5.08
2019-06-07T18:22:25.712Z,5.20
2019-06-07T18:24:56.183Z,3.75
2019-06-07T18:27:26.606Z,5.83
2019-06-07T18:29:56.957Z,4.58
2019-06-07T18:32:27.319Z,3.62
2019-06-07T18:34:57.580Z,6.80
2019-06-07T18:37:27.954Z,4.70
2019-06-07T18:40:00.285Z,8.15
2019-06-07T18:42:30.708Z,5.05
2019-06-07T18:45:00.978Z,7.12
2019-06-07T18:47:31.362Z,7.05
2019-06-07T18:50:01.631Z,5.37
2019-06-07T18:52:33.589Z,5.72
2019-06-07T18:55:08.542Z,3.47
2019-06-07T18:57:38.916Z,5.95
2019-06-07T19:00:11.955Z,5.42
2019-06-07T19:02:42.394Z,7.80
2019-06-07T19:05:13.207Z,9.53
2019-06-07T19:07:43.583Z,14.28
2019-06-07T19:10:15.873Z,7.47
2019-06-07T19:12:48.930Z,7.17
2019-06-07T19:15:20.631Z,4.25
2019-06-07T19:17:52.134Z,3.62
2019-06-07T19:20:23.045Z,3.15
2019-06-07T19:22:54.212Z,12.30
2019-06-07T19:25:24.557Z,5.83
2019-06-07T19:27:55.096Z,5.03
2019-06-07T19:30:25.439Z,4.50
2019-06-07T19:32:57.143Z,8.60
2019-06-07T19:35:27.610Z,3.05
2019-06-07T19:37:58.179Z,3.50
2019-06-07T19:40:28.698Z,3.72
2019-06-07T19:43:00.458Z,4.08
2019-06-07T19:45:31.801Z,4.92
2019-06-07T19:48:02.855Z,4.28
2019-06-07T19:50:33.310Z,6.20
2019-06-07T19:53:04.181Z,6.92
2019-06-07T19:55:34.606Z,4.85
2019-06-07T19:58:05.029Z,5.03
2019-06-07T20:00:35.488Z,6.12
2019-06-07T20:03:06.019Z,1.87
2019-06-07T20:05:36.513Z,9.15
2019-06-07T20:08:06.943Z,5.67
2019-06-07T20:10:37.327Z,4.75
2019-06-07T20:13:07.601Z,4.00
2019-06-07T20:15:38.066Z,4.08
2019-06-07T20:18:08.494Z,2.65
2019-06-07T20:20:38.884Z,1.57
2019-06-07T20:23:09.372Z,4.50
2019-06-07T20:25:39.735Z,4.42
2019-06-07T20:28:10.081Z,5.33
2019-06-07T20:30:40.532Z,3.08
2019-06-07T20:33:10.948Z,4.00
2019-06-07T20:35:41.447Z,1.95
2019-06-07T20:38:11.729Z,3.60
2019-06-07T20:40:42.036Z,4.53
2019-06-07T20:43:12.318Z,1.75
2019-06-07T20:45:42.708Z,4.17
2019-06-07T20:48:13.096Z,8.80
2019-06-07T20:50:43.396Z,1.37
2019-06-07T20:53:13.657Z,7.03
2019-06-07T20:55:44.107Z,2.55
2019-06-07T20:58:14.393Z,2.27
2019-06-07T21:00:44.836Z,11.43
2019-06-07T21:03:15.420Z,3.77
2019-06-07T21:05:46.671Z,7.80
2019-06-07T21:08:16.988Z,4.30
2019-06-07T21:10:47.302Z,1.57
2019-06-07T21:13:17.592Z,1.12
2019-06-07T21:15:55.079Z,0.60
2019-06-07T21:18:25.359Z,1.20
2019-06-07T21:20:56.021Z,0.75
2019-06-07T21:23:26.309Z,1.02
2019-06-07T21:25:56.625Z,1.30
2019-06-07T21:28:26.983Z,1.55
2019-06-07T21:30:57.326Z,4.75
2019-06-07T21:33:27.599Z,0.93
2019-06-07T21:35:57.907Z,1.75
2019-06-07T21:38:28.194Z,2.30
2019-06-07T21:40:58.483Z,0.93
2019-06-07T21:43:28.934Z,1.20
2019-06-07T21:46:05.502Z,0.90
2019-06-07T21:48:31.488Z,3.77
2019-06-07T21:51:02.220Z,1.72
2019-06-07T21:53:32.563Z,0.57
2019-06-07T21:56:03.017Z,2.52
2019-06-07T21:58:34.532Z,0.62
2019-06-07T22:01:12.212Z,1.40
2019-06-07T22:03:44.636Z,1.20
2019-06-07T22:06:15.242Z,2.33
2019-06-07T22:08:45.557Z,1.50
2019-06-07T22:11:15.846Z,0.75
2019-06-07T22:13:46.323Z,0.90
2019-06-07T22:16:28.457Z,3.08
2019-06-07T22:18:48.756Z,0.53
2019-06-07T22:21:19.108Z,1.90
2019-06-07T22:23:49.485Z,1.95
2019-06-07T22:26:20.901Z,2.95
2019-06-07T22:28:51.447Z,2.02
2019-06-07T22:31:21.898Z,1.90
2019-06-07T22:33:52.189Z,1.70
2019-06-07T22:36:22.471Z,0.85
2019-06-07T22:38:52.870Z,0.88
2019-06-07T22:41:23.219Z,1.02
2019-06-07T22:43:53.520Z,1.00
2019-06-07T22:46:36.882Z,1.05
2019-06-07T22:48:56.776Z,1.32
2019-06-07T22:51:27.163Z,1.67
2019-06-07T22:53:57.562Z,2.50
2019-06-07T22:56:35.590Z,2.92
2019-06-07T22:59:06.014Z,1.77
2019-06-07T23:01:36.431Z,1.47
2019-06-07T23:04:06.906Z,1.20
2019-06-07T23:06:37.315Z,1.20
2019-06-07T23:09:08.862Z,1.35
2019-06-07T23:11:39.321Z,2.30
2019-06-07T23:14:09.639Z,1.98
2019-06-07T23:16:54.355Z,1.50
2019-06-07T23:19:13.799Z,1.27
2019-06-07T23:21:44.175Z,0.62
2019-06-07T23:24:16.508Z,3.65
2019-06-07T23:26:47.070Z,3.27
2019-06-07T23:29:18.575Z,0.90
2019-06-07T23:31:49.017Z,1.10
2019-06-07T23:34:19.385Z,1.95
2019-06-07T23:36:49.711Z,1.57
2019-06-07T23:39:20.871Z,2.72
2019-06-07T23:41:51.998Z,1.72
2019-06-07T23:44:22.537Z,0.93
2019-06-07T23:46:52.909Z,0.65
2019-06-07T23:49:23.188Z,1.98
2019-06-07T23:52:07.222Z,0.93
2019-06-07T23:54:37.649Z,1.42
2019-06-07T23:57:08.026Z,0.53
2019-06-07T23:59:38.395Z,2.58
